Good Thunder, Minnesota
Current Conditions -  °F | °C
As of 6:35 PM on Saturday 25 Oct 2014 (Local Time) from KMKT Reporting Station
Clear Clear  
Wind Chill: 57°   Ceiling: Unl
Heat Index: 57°   Visibility: 10mi
Dew Point: 27°   Wind: 9mph
Humidity: 31%   Direction: 310°NW
Pressure: 30.07"   Gusts: NA
Location:  44°N, 94.07°W
Report Text: KMKT 252335Z AUTO 31008KT 10SM CLR 14/M03 A3007 RMK AO1
Loading
Personal Weather Stations






























Interactive Weather Map
Tropical Storm Tracking
New forecast layout! Learn more

10-Day Weather Forecast

Advertisements
Track Severe Weather on mobile